sensor_id;sensor_type;location;lat;lon;timestamp;P1;durP1;ratioP1;P2;durP2;ratioP2
20928;SDS011;21895;47.072;15.132;2023-03-31T00:00:10;11.70;;;4.13;;
20928;SDS011;21895;47.072;15.132;2023-03-31T00:02:37;10.83;;;4.53;;
20928;SDS011;21895;47.072;15.132;2023-03-31T00:05:07;6.40;;;3.57;;
20928;SDS011;21895;47.072;15.132;2023-03-31T00:07:34;6.00;;;3.60;;
20928;SDS011;21895;47.072;15.132;2023-03-31T00:10:03;4.77;;;3.00;;
20928;SDS011;21895;47.072;15.132;2023-03-31T00:12:43;8.80;;;4.87;;
20928;SDS011;21895;47.072;15.132;2023-03-31T00:15:10;8.43;;;4.63;;
20928;SDS011;21895;47.072;15.132;2023-03-31T00:17:37;6.80;;;3.73;;
20928;SDS011;21895;47.072;15.132;2023-03-31T00:20:04;7.17;;;3.80;;
20928;SDS011;21895;47.072;15.132;2023-03-31T00:22:37;6.50;;;3.27;;
20928;SDS011;21895;47.072;15.132;2023-03-31T00:25:07;10.87;;;4.20;;
20928;SDS011;21895;47.072;15.132;2023-03-31T00:27:35;9.97;;;4.23;;
20928;SDS011;21895;47.072;15.132;2023-03-31T00:30:02;10.63;;;4.07;;
20928;SDS011;21895;47.072;15.132;2023-03-31T00:32:29;5.43;;;3.40;;
20928;SDS011;21895;47.072;15.132;2023-03-31T00:34:57;6.40;;;3.70;;
20928;SDS011;21895;47.072;15.132;2023-03-31T00:37:27;8.43;;;3.33;;
20928;SDS011;21895;47.072;15.132;2023-03-31T00:39:54;11.77;;;4.30;;
20928;SDS011;21895;47.072;15.132;2023-03-31T00:42:21;9.47;;;4.63;;
20928;SDS011;21895;47.072;15.132;2023-03-31T00:48:07;6.40;;;3.60;;
20928;SDS011;21895;47.072;15.132;2023-03-31T00:50:45;6.63;;;3.70;;
20928;SDS011;21895;47.072;15.132;2023-03-31T00:53:21;6.50;;;3.37;;
20928;SDS011;21895;47.072;15.132;2023-03-31T00:55:55;6.80;;;3.90;;
20928;SDS011;21895;47.072;15.132;2023-03-31T00:58:30;7.73;;;3.73;;
20928;SDS011;21895;47.072;15.132;2023-03-31T01:00:58;5.43;;;3.23;;
20928;SDS011;21895;47.072;15.132;2023-03-31T01:03:28;7.30;;;3.10;;
20928;SDS011;21895;47.072;15.132;2023-03-31T01:06:02;4.07;;;2.80;;
20928;SDS011;21895;47.072;15.132;2023-03-31T01:08:31;7.70;;;3.23;;
20928;SDS011;21895;47.072;15.132;2023-03-31T01:11:02;6.13;;;2.87;;
20928;SDS011;21895;47.072;15.132;2023-03-31T01:13:33;5.27;;;3.00;;
20928;SDS011;21895;47.072;15.132;2023-03-31T01:16:05;5.33;;;2.90;;
20928;SDS011;21895;47.072;15.132;2023-03-31T01:18:32;7.03;;;3.10;;
20928;SDS011;21895;47.072;15.132;2023-03-31T01:21:39;8.07;;;3.40;;
20928;SDS011;21895;47.072;15.132;2023-03-31T01:37:16;8.07;;;2.97;;
20928;SDS011;21895;47.072;15.132;2023-03-31T01:51:21;7.17;;;2.93;;
20928;SDS011;21895;47.072;15.132;2023-03-31T01:54:29;5.60;;;2.87;;
20928;SDS011;21895;47.072;15.132;2023-03-31T01:57:28;4.80;;;2.90;;
20928;SDS011;21895;47.072;15.132;2023-03-31T02:00:13;7.50;;;3.37;;
20928;SDS011;21895;47.072;15.132;2023-03-31T02:07:55;13.63;;;3.27;;
20928;SDS011;21895;47.072;15.132;2023-03-31T02:10:35;7.77;;;3.30;;
20928;SDS011;21895;47.072;15.132;2023-03-31T02:13:05;5.10;;;3.00;;
20928;SDS011;21895;47.072;15.132;2023-03-31T02:15:37;5.90;;;3.10;;
20928;SDS011;21895;47.072;15.132;2023-03-31T02:18:12;9.83;;;3.53;;
20928;SDS011;21895;47.072;15.132;2023-03-31T02:20:46;8.43;;;3.10;;
20928;SDS011;21895;47.072;15.132;2023-03-31T02:23:16;5.00;;;3.10;;
20928;SDS011;21895;47.072;15.132;2023-03-31T02:25:52;2.93;;;2.20;;
20928;SDS011;21895;47.072;15.132;2023-03-31T02:28:27;3.70;;;2.37;;
20928;SDS011;21895;47.072;15.132;2023-03-31T02:35:45;5.23;;;2.83;;
20928;SDS011;21895;47.072;15.132;2023-03-31T02:38:12;7.50;;;2.60;;
20928;SDS011;21895;47.072;15.132;2023-03-31T02:40:38;5.50;;;2.83;;
20928;SDS011;21895;47.072;15.132;2023-03-31T02:43:05;6.03;;;2.70;;
20928;SDS011;21895;47.072;15.132;2023-03-31T02:45:35;7.20;;;2.70;;
20928;SDS011;21895;47.072;15.132;2023-03-31T02:48:21;4.73;;;2.73;;
20928;SDS011;21895;47.072;15.132;2023-03-31T02:51:05;4.77;;;2.47;;
20928;SDS011;21895;47.072;15.132;2023-03-31T03:03:13;4.53;;;2.57;;
20928;SDS011;21895;47.072;15.132;2023-03-31T03:06:30;4.00;;;2.03;;
20928;SDS011;21895;47.072;15.132;2023-03-31T03:09:35;7.57;;;2.70;;
20928;SDS011;21895;47.072;15.132;2023-03-31T03:12:55;8.57;;;3.30;;
20928;SDS011;21895;47.072;15.132;2023-03-31T03:18:57;6.23;;;3.20;;
20928;SDS011;21895;47.072;15.132;2023-03-31T03:21:26;11.50;;;3.37;;
20928;SDS011;21895;47.072;15.132;2023-03-31T03:23:55;5.57;;;3.10;;
20928;SDS011;21895;47.072;15.132;2023-03-31T03:26:22;5.30;;;3.03;;
20928;SDS011;21895;47.072;15.132;2023-03-31T03:28:53;5.43;;;3.07;;
20928;SDS011;21895;47.072;15.132;2023-03-31T03:31:21;12.90;;;3.77;;
20928;SDS011;21895;47.072;15.132;2023-03-31T03:33:48;4.37;;;3.00;;
20928;SDS011;21895;47.072;15.132;2023-03-31T03:36:16;6.53;;;3.30;;
20928;SDS011;21895;47.072;15.132;2023-03-31T03:38:43;5.93;;;3.03;;
20928;SDS011;21895;47.072;15.132;2023-03-31T03:41:10;9.20;;;3.77;;
20928;SDS011;21895;47.072;15.132;2023-03-31T03:43:36;6.00;;;3.07;;
20928;SDS011;21895;47.072;15.132;2023-03-31T03:46:03;9.23;;;3.90;;
20928;SDS011;21895;47.072;15.132;2023-03-31T03:48:30;8.23;;;3.40;;
20928;SDS011;21895;47.072;15.132;2023-03-31T03:50:58;5.23;;;2.93;;
20928;SDS011;21895;47.072;15.132;2023-03-31T03:53:25;6.20;;;3.10;;
20928;SDS011;21895;47.072;15.132;2023-03-31T03:55:52;5.90;;;3.00;;
20928;SDS011;21895;47.072;15.132;2023-03-31T03:58:19;7.23;;;3.10;;
20928;SDS011;21895;47.072;15.132;2023-03-31T04:00:45;5.73;;;3.17;;
20928;SDS011;21895;47.072;15.132;2023-03-31T04:03:12;3.50;;;2.40;;
20928;SDS011;21895;47.072;15.132;2023-03-31T04:05:39;4.50;;;2.33;;
20928;SDS011;21895;47.072;15.132;2023-03-31T04:08:06;3.60;;;2.50;;
20928;SDS011;21895;47.072;15.132;2023-03-31T04:10:33;10.20;;;3.13;;
20928;SDS011;21895;47.072;15.132;2023-03-31T04:13:00;5.50;;;3.03;;
20928;SDS011;21895;47.072;15.132;2023-03-31T04:15:26;9.67;;;3.93;;
20928;SDS011;21895;47.072;15.132;2023-03-31T04:17:53;8.47;;;3.70;;
20928;SDS011;21895;47.072;15.132;2023-03-31T04:20:22;6.27;;;3.53;;
20928;SDS011;21895;47.072;15.132;2023-03-31T04:22:52;11.63;;;5.70;;
20928;SDS011;21895;47.072;15.132;2023-03-31T04:25:19;12.47;;;5.07;;
20928;SDS011;21895;47.072;15.132;2023-03-31T04:27:47;9.40;;;4.67;;
20928;SDS011;21895;47.072;15.132;2023-03-31T04:30:22;11.27;;;4.97;;
20928;SDS011;21895;47.072;15.132;2023-03-31T04:33:01;8.63;;;3.70;;
20928;SDS011;21895;47.072;15.132;2023-03-31T04:35:29;7.00;;;3.20;;
20928;SDS011;21895;47.072;15.132;2023-03-31T04:38:12;7.07;;;3.50;;
20928;SDS011;21895;47.072;15.132;2023-03-31T04:40:44;7.37;;;3.90;;
20928;SDS011;21895;47.072;15.132;2023-03-31T04:43:13;10.97;;;4.47;;
20928;SDS011;21895;47.072;15.132;2023-03-31T04:45:41;10.57;;;4.47;;
20928;SDS011;21895;47.072;15.132;2023-03-31T04:48:07;11.57;;;4.67;;
20928;SDS011;21895;47.072;15.132;2023-03-31T04:50:35;10.97;;;5.07;;
20928;SDS011;21895;47.072;15.132;2023-03-31T04:53:01;6.87;;;4.07;;
20928;SDS011;21895;47.072;15.132;2023-03-31T04:55:29;5.83;;;3.40;;
20928;SDS011;21895;47.072;15.132;2023-03-31T04:57:56;6.30;;;3.53;;
20928;SDS011;21895;47.072;15.132;2023-03-31T05:00:23;6.10;;;3.93;;
20928;SDS011;21895;47.072;15.132;2023-03-31T05:02:51;11.90;;;4.73;;
20928;SDS011;21895;47.072;15.132;2023-03-31T05:05:17;9.83;;;3.57;;
20928;SDS011;21895;47.072;15.132;2023-03-31T05:07:44;20.87;;;4.07;;
20928;SDS011;21895;47.072;15.132;2023-03-31T05:10:10;11.40;;;4.20;;
20928;SDS011;21895;47.072;15.132;2023-03-31T05:12:37;8.97;;;4.57;;
20928;SDS011;21895;47.072;15.132;2023-03-31T05:15:04;9.30;;;4.80;;
20928;SDS011;21895;47.072;15.132;2023-03-31T05:17:32;14.47;;;5.13;;
20928;SDS011;21895;47.072;15.132;2023-03-31T05:20:00;12.40;;;4.50;;
20928;SDS011;21895;47.072;15.132;2023-03-31T05:22:35;13.47;;;4.70;;
20928;SDS011;21895;47.072;15.132;2023-03-31T05:25:04;7.70;;;3.93;;
20928;SDS011;21895;47.072;15.132;2023-03-31T05:27:33;11.47;;;4.23;;
20928;SDS011;21895;47.072;15.132;2023-03-31T05:30:01;7.93;;;3.47;;
20928;SDS011;21895;47.072;15.132;2023-03-31T05:32:29;9.77;;;4.90;;
20928;SDS011;21895;47.072;15.132;2023-03-31T05:34:55;11.33;;;4.80;;
20928;SDS011;21895;47.072;15.132;2023-03-31T05:37:25;9.47;;;5.07;;
20928;SDS011;21895;47.072;15.132;2023-03-31T05:39:51;7.63;;;4.33;;
20928;SDS011;21895;47.072;15.132;2023-03-31T05:42:18;15.57;;;5.40;;
20928;SDS011;21895;47.072;15.132;2023-03-31T05:44:45;11.17;;;5.37;;
20928;SDS011;21895;47.072;15.132;2023-03-31T05:47:12;12.83;;;5.43;;
20928;SDS011;21895;47.072;15.132;2023-03-31T05:49:39;11.67;;;4.57;;
20928;SDS011;21895;47.072;15.132;2023-03-31T05:52:06;7.70;;;4.30;;
20928;SDS011;21895;47.072;15.132;2023-03-31T05:54:33;6.30;;;2.93;;
20928;SDS011;21895;47.072;15.132;2023-03-31T05:57:00;9.57;;;3.53;;
20928;SDS011;21895;47.072;15.132;2023-03-31T05:59:26;7.10;;;3.87;;
20928;SDS011;21895;47.072;15.132;2023-03-31T06:01:53;11.97;;;4.73;;
20928;SDS011;21895;47.072;15.132;2023-03-31T06:04:20;13.50;;;4.70;;
20928;SDS011;21895;47.072;15.132;2023-03-31T06:06:46;9.03;;;4.97;;
20928;SDS011;21895;47.072;15.132;2023-03-31T06:09:15;9.50;;;4.63;;
20928;SDS011;21895;47.072;15.132;2023-03-31T06:11:42;14.47;;;5.67;;
20928;SDS011;21895;47.072;15.132;2023-03-31T06:14:08;9.47;;;4.53;;
20928;SDS011;21895;47.072;15.132;2023-03-31T06:16:35;8.83;;;4.40;;
20928;SDS011;21895;47.072;15.132;2023-03-31T06:19:01;8.77;;;4.33;;
20928;SDS011;21895;47.072;15.132;2023-03-31T06:21:28;7.23;;;3.30;;
20928;SDS011;21895;47.072;15.132;2023-03-31T06:23:54;7.63;;;4.27;;
20928;SDS011;21895;47.072;15.132;2023-03-31T06:26:22;9.57;;;3.90;;
20928;SDS011;21895;47.072;15.132;2023-03-31T06:28:49;7.83;;;3.77;;
20928;SDS011;21895;47.072;15.132;2023-03-31T06:31:17;8.33;;;4.90;;
20928;SDS011;21895;47.072;15.132;2023-03-31T06:33:47;11.33;;;4.17;;
20928;SDS011;21895;47.072;15.132;2023-03-31T06:36:15;15.43;;;4.30;;
20928;SDS011;21895;47.072;15.132;2023-03-31T06:38:44;6.73;;;3.53;;
20928;SDS011;21895;47.072;15.132;2023-03-31T06:41:11;12.87;;;4.13;;
20928;SDS011;21895;47.072;15.132;2023-03-31T06:43:40;7.30;;;3.50;;
20928;SDS011;21895;47.072;15.132;2023-03-31T06:46:07;6.43;;;3.60;;
20928;SDS011;21895;47.072;15.132;2023-03-31T06:48:34;6.90;;;3.53;;
20928;SDS011;21895;47.072;15.132;2023-03-31T06:51:02;6.17;;;3.43;;
20928;SDS011;21895;47.072;15.132;2023-03-31T06:53:31;6.57;;;3.30;;
20928;SDS011;21895;47.072;15.132;2023-03-31T06:55:59;7.63;;;3.73;;
20928;SDS011;21895;47.072;15.132;2023-03-31T06:58:26;7.60;;;3.77;;
20928;SDS011;21895;47.072;15.132;2023-03-31T07:00:56;8.97;;;3.83;;
20928;SDS011;21895;47.072;15.132;2023-03-31T07:03:23;8.57;;;3.13;;
20928;SDS011;21895;47.072;15.132;2023-03-31T07:05:51;7.57;;;3.43;;
20928;SDS011;21895;47.072;15.132;2023-03-31T07:08:19;7.30;;;3.33;;
20928;SDS011;21895;47.072;15.132;2023-03-31T07:10:48;16.87;;;3.83;;
20928;SDS011;21895;47.072;15.132;2023-03-31T07:13:20;7.20;;;3.40;;
20928;SDS011;21895;47.072;15.132;2023-03-31T07:15:46;5.90;;;3.40;;
20928;SDS011;21895;47.072;15.132;2023-03-31T07:18:14;8.53;;;3.37;;
20928;SDS011;21895;47.072;15.132;2023-03-31T07:20:43;5.10;;;3.37;;
20928;SDS011;21895;47.072;15.132;2023-03-31T07:23:15;7.83;;;3.30;;
20928;SDS011;21895;47.072;15.132;2023-03-31T07:25:41;6.73;;;3.37;;
20928;SDS011;21895;47.072;15.132;2023-03-31T07:28:08;6.67;;;3.43;;
20928;SDS011;21895;47.072;15.132;2023-03-31T07:30:35;10.60;;;3.60;;
20928;SDS011;21895;47.072;15.132;2023-03-31T07:33:01;9.53;;;3.97;;
20928;SDS011;21895;47.072;15.132;2023-03-31T07:35:28;13.43;;;4.03;;
20928;SDS011;21895;47.072;15.132;2023-03-31T07:37:56;8.53;;;3.90;;
20928;SDS011;21895;47.072;15.132;2023-03-31T07:40:24;10.10;;;3.40;;
20928;SDS011;21895;47.072;15.132;2023-03-31T07:42:53;5.93;;;2.77;;
20928;SDS011;21895;47.072;15.132;2023-03-31T07:45:21;6.65;;;2.90;;
20928;SDS011;21895;47.072;15.132;2023-03-31T07:47:50;10.63;;;2.50;;
20928;SDS011;21895;47.072;15.132;2023-03-31T07:50:18;3.87;;;2.60;;
20928;SDS011;21895;47.072;15.132;2023-03-31T07:52:47;5.63;;;2.10;;
20928;SDS011;21895;47.072;15.132;2023-03-31T07:55:15;2.17;;;1.43;;
20928;SDS011;21895;47.072;15.132;2023-03-31T07:57:42;5.20;;;1.43;;
20928;SDS011;21895;47.072;15.132;2023-03-31T08:00:10;2.20;;;1.33;;
20928;SDS011;21895;47.072;15.132;2023-03-31T08:02:38;5.93;;;1.73;;
20928;SDS011;21895;47.072;15.132;2023-03-31T08:05:07;3.17;;;1.60;;
20928;SDS011;21895;47.072;15.132;2023-03-31T08:07:37;12.00;;;1.70;;
20928;SDS011;21895;47.072;15.132;2023-03-31T08:10:07;2.30;;;1.63;;
20928;SDS011;21895;47.072;15.132;2023-03-31T08:12:38;2.37;;;1.37;;
20928;SDS011;21895;47.072;15.132;2023-03-31T08:15:04;7.10;;;1.48;;
20928;SDS011;21895;47.072;15.132;2023-03-31T08:17:32;2.80;;;1.60;;
20928;SDS011;21895;47.072;15.132;2023-03-31T08:19:58;2.10;;;1.55;;
20928;SDS011;21895;47.072;15.132;2023-03-31T08:22:31;2.45;;;1.50;;
20928;SDS011;21895;47.072;15.132;2023-03-31T08:24:57;4.35;;;1.67;;
20928;SDS011;21895;47.072;15.132;2023-03-31T08:27:24;6.35;;;1.60;;
20928;SDS011;21895;47.072;15.132;2023-03-31T08:29:50;4.75;;;1.95;;
20928;SDS011;21895;47.072;15.132;2023-03-31T08:32:17;6.47;;;1.40;;
20928;SDS011;21895;47.072;15.132;2023-03-31T08:34:47;6.05;;;1.70;;
20928;SDS011;21895;47.072;15.132;2023-03-31T08:37:14;2.22;;;1.75;;
20928;SDS011;21895;47.072;15.132;2023-03-31T08:39:40;1.70;;;1.35;;
20928;SDS011;21895;47.072;15.132;2023-03-31T08:42:10;4.43;;;1.50;;
20928;SDS011;21895;47.072;15.132;2023-03-31T08:44:59;1.30;;;1.20;;
20928;SDS011;21895;47.072;15.132;2023-03-31T08:47:36;2.30;;;1.23;;
20928;SDS011;21895;47.072;15.132;2023-03-31T08:50:14;2.30;;;1.20;;
20928;SDS011;21895;47.072;15.132;2023-03-31T08:52:50;3.87;;;1.40;;
20928;SDS011;21895;47.072;15.132;2023-03-31T08:55:39;5.07;;;1.00;;
20928;SDS011;21895;47.072;15.132;2023-03-31T08:58:22;1.65;;;1.30;;
20928;SDS011;21895;47.072;15.132;2023-03-31T09:03:39;2.08;;;1.10;;
20928;SDS011;21895;47.072;15.132;2023-03-31T09:11:55;2.12;;;1.20;;
20928;SDS011;21895;47.072;15.132;2023-03-31T09:14:37;1.55;;;1.20;;
20928;SDS011;21895;47.072;15.132;2023-03-31T09:17:26;3.12;;;1.17;;
20928;SDS011;21895;47.072;15.132;2023-03-31T09:20:18;2.83;;;1.50;;
20928;SDS011;21895;47.072;15.132;2023-03-31T09:26:23;2.25;;;1.58;;
20928;SDS011;21895;47.072;15.132;2023-03-31T09:29:12;2.00;;;1.42;;
20928;SDS011;21895;47.072;15.132;2023-03-31T09:31:46;2.72;;;1.40;;
20928;SDS011;21895;47.072;15.132;2023-03-31T09:34:15;7.03;;;1.75;;
20928;SDS011;21895;47.072;15.132;2023-03-31T09:36:49;2.28;;;1.55;;
20928;SDS011;21895;47.072;15.132;2023-03-31T09:39:16;3.40;;;1.62;;
20928;SDS011;21895;47.072;15.132;2023-03-31T09:41:44;3.05;;;1.60;;
20928;SDS011;21895;47.072;15.132;2023-03-31T09:44:24;2.95;;;1.80;;
20928;SDS011;21895;47.072;15.132;2023-03-31T09:47:03;3.10;;;1.90;;
20928;SDS011;21895;47.072;15.132;2023-03-31T09:50:22;1.52;;;1.42;;
20928;SDS011;21895;47.072;15.132;2023-03-31T09:52:51;2.50;;;1.40;;
20928;SDS011;21895;47.072;15.132;2023-03-31T09:55:24;2.15;;;1.77;;
20928;SDS011;21895;47.072;15.132;2023-03-31T09:59:14;2.70;;;1.52;;
20928;SDS011;21895;47.072;15.132;2023-03-31T10:02:28;3.72;;;1.80;;
20928;SDS011;21895;47.072;15.132;2023-03-31T10:05:03;4.03;;;1.73;;
20928;SDS011;21895;47.072;15.132;2023-03-31T10:07:31;5.75;;;1.80;;
20928;SDS011;21895;47.072;15.132;2023-03-31T10:09:58;2.25;;;1.75;;
20928;SDS011;21895;47.072;15.132;2023-03-31T10:12:29;2.78;;;1.90;;
20928;SDS011;21895;47.072;15.132;2023-03-31T10:17:50;6.45;;;1.70;;
20928;SDS011;21895;47.072;15.132;2023-03-31T10:20:31;3.62;;;1.95;;
20928;SDS011;21895;47.072;15.132;2023-03-31T10:23:05;4.70;;;1.90;;
20928;SDS011;21895;47.072;15.132;2023-03-31T10:25:58;8.65;;;1.65;;
20928;SDS011;21895;47.072;15.132;2023-03-31T10:28:29;2.40;;;1.80;;
20928;SDS011;21895;47.072;15.132;2023-03-31T10:30:59;4.40;;;1.70;;
20928;SDS011;21895;47.072;15.132;2023-03-31T10:33:29;4.07;;;1.85;;
20928;SDS011;21895;47.072;15.132;2023-03-31T10:36:00;4.73;;;1.77;;
20928;SDS011;21895;47.072;15.132;2023-03-31T10:38:38;3.08;;;1.60;;
20928;SDS011;21895;47.072;15.132;2023-03-31T10:41:09;2.20;;;2.00;;
20928;SDS011;21895;47.072;15.132;2023-03-31T10:43:42;5.62;;;1.90;;
20928;SDS011;21895;47.072;15.132;2023-03-31T10:46:18;3.30;;;1.83;;
20928;SDS011;21895;47.072;15.132;2023-03-31T10:48:45;3.28;;;1.90;;
20928;SDS011;21895;47.072;15.132;2023-03-31T10:51:16;2.72;;;1.80;;
20928;SDS011;21895;47.072;15.132;2023-03-31T10:53:46;7.07;;;1.95;;
20928;SDS011;21895;47.072;15.132;2023-03-31T10:56:23;3.33;;;2.10;;
20928;SDS011;21895;47.072;15.132;2023-03-31T10:59:20;4.65;;;2.00;;
20928;SDS011;21895;47.072;15.132;2023-03-31T11:12:57;8.27;;;1.90;;
20928;SDS011;21895;47.072;15.132;2023-03-31T11:16:32;3.50;;;2.05;;
20928;SDS011;21895;47.072;15.132;2023-03-31T11:19:26;8.05;;;1.77;;
20928;SDS011;21895;47.072;15.132;2023-03-31T11:34:16;4.97;;;1.60;;
20928;SDS011;21895;47.072;15.132;2023-03-31T11:38:45;5.30;;;2.05;;
20928;SDS011;21895;47.072;15.132;2023-03-31T11:41:41;8.07;;;2.30;;
20928;SDS011;21895;47.072;15.132;2023-03-31T11:44:17;5.68;;;2.10;;
20928;SDS011;21895;47.072;15.132;2023-03-31T11:46:52;4.60;;;2.30;;
20928;SDS011;21895;47.072;15.132;2023-03-31T11:49:29;11.20;;;2.72;;
20928;SDS011;21895;47.072;15.132;2023-03-31T11:52:07;3.53;;;1.70;;
20928;SDS011;21895;47.072;15.132;2023-03-31T11:54:52;8.48;;;2.22;;
20928;SDS011;21895;47.072;15.132;2023-03-31T12:02:51;6.35;;;1.98;;
20928;SDS011;21895;47.072;15.132;2023-03-31T12:06:45;5.75;;;2.28;;
20928;SDS011;21895;47.072;15.132;2023-03-31T12:09:16;2.80;;;2.05;;
20928;SDS011;21895;47.072;15.132;2023-03-31T12:12:28;5.05;;;2.47;;
20928;SDS011;21895;47.072;15.132;2023-03-31T12:15:05;6.87;;;2.08;;
20928;SDS011;21895;47.072;15.132;2023-03-31T12:17:56;2.92;;;1.83;;
20928;SDS011;21895;47.072;15.132;2023-03-31T12:20:56;7.95;;;1.80;;
20928;SDS011;21895;47.072;15.132;2023-03-31T12:23:30;3.67;;;1.80;;
20928;SDS011;21895;47.072;15.132;2023-03-31T12:33:23;3.78;;;2.00;;
20928;SDS011;21895;47.072;15.132;2023-03-31T12:36:02;3.60;;;1.42;;
20928;SDS011;21895;47.072;15.132;2023-03-31T12:39:12;2.30;;;1.50;;
20928;SDS011;21895;47.072;15.132;2023-03-31T12:42:14;3.47;;;1.73;;
20928;SDS011;21895;47.072;15.132;2023-03-31T12:56:07;2.47;;;1.85;;
20928;SDS011;21895;47.072;15.132;2023-03-31T12:58:37;3.50;;;2.10;;
20928;SDS011;21895;47.072;15.132;2023-03-31T13:04:55;4.05;;;1.77;;
20928;SDS011;21895;47.072;15.132;2023-03-31T13:13:24;3.20;;;1.65;;
20928;SDS011;21895;47.072;15.132;2023-03-31T13:15:51;2.60;;;1.80;;
20928;SDS011;21895;47.072;15.132;2023-03-31T13:18:21;4.37;;;2.08;;
20928;SDS011;21895;47.072;15.132;2023-03-31T13:20:58;2.62;;;1.83;;
20928;SDS011;21895;47.072;15.132;2023-03-31T13:23:33;2.05;;;1.33;;
20928;SDS011;21895;47.072;15.132;2023-03-31T13:26:02;3.50;;;1.67;;
20928;SDS011;21895;47.072;15.132;2023-03-31T13:28:39;4.00;;;1.65;;
20928;SDS011;21895;47.072;15.132;2023-03-31T13:31:11;3.15;;;2.08;;
20928;SDS011;21895;47.072;15.132;2023-03-31T13:33:53;3.37;;;1.85;;
20928;SDS011;21895;47.072;15.132;2023-03-31T13:43:59;3.30;;;2.20;;
20928;SDS011;21895;47.072;15.132;2023-03-31T13:50:30;3.92;;;2.25;;
20928;SDS011;21895;47.072;15.132;2023-03-31T13:57:02;2.90;;;2.08;;
20928;SDS011;21895;47.072;15.132;2023-03-31T14:04:43;6.10;;;2.58;;
20928;SDS011;21895;47.072;15.132;2023-03-31T14:09:24;6.10;;;2.67;;
20928;SDS011;21895;47.072;15.132;2023-03-31T14:16:58;4.22;;;2.00;;
20928;SDS011;21895;47.072;15.132;2023-03-31T14:24:31;5.50;;;2.67;;
20928;SDS011;21895;47.072;15.132;2023-03-31T14:31:54;7.62;;;2.17;;
20928;SDS011;21895;47.072;15.132;2023-03-31T14:41:58;4.22;;;2.30;;
20928;SDS011;21895;47.072;15.132;2023-03-31T14:44:32;4.32;;;2.08;;
20928;SDS011;21895;47.072;15.132;2023-03-31T14:46:59;5.20;;;2.33;;
20928;SDS011;21895;47.072;15.132;2023-03-31T14:49:33;5.53;;;2.37;;
20928;SDS011;21895;47.072;15.132;2023-03-31T14:52:16;5.20;;;2.30;;
20928;SDS011;21895;47.072;15.132;2023-03-31T14:54:47;5.57;;;2.47;;
20928;SDS011;21895;47.072;15.132;2023-03-31T14:57:18;4.00;;;2.30;;
20928;SDS011;21895;47.072;15.132;2023-03-31T14:59:53;3.05;;;2.30;;
20928;SDS011;21895;47.072;15.132;2023-03-31T15:02:54;4.22;;;2.45;;
20928;SDS011;21895;47.072;15.132;2023-03-31T15:05:29;5.00;;;2.50;;
20928;SDS011;21895;47.072;15.132;2023-03-31T15:08:02;7.78;;;2.10;;
20928;SDS011;21895;47.072;15.132;2023-03-31T15:10:39;6.15;;;2.55;;
20928;SDS011;21895;47.072;15.132;2023-03-31T15:13:11;5.45;;;2.60;;
20928;SDS011;21895;47.072;15.132;2023-03-31T15:15:52;5.12;;;2.42;;
20928;SDS011;21895;47.072;15.132;2023-03-31T15:18:18;3.53;;;2.50;;
20928;SDS011;21895;47.072;15.132;2023-03-31T15:20:46;4.05;;;2.58;;
20928;SDS011;21895;47.072;15.132;2023-03-31T15:23:20;4.72;;;2.35;;
20928;SDS011;21895;47.072;15.132;2023-03-31T15:25:57;5.07;;;2.30;;
20928;SDS011;21895;47.072;15.132;2023-03-31T15:28:30;3.87;;;2.70;;
20928;SDS011;21895;47.072;15.132;2023-03-31T15:31:13;4.22;;;2.25;;
20928;SDS011;21895;47.072;15.132;2023-03-31T15:33:40;8.65;;;3.08;;
20928;SDS011;21895;47.072;15.132;2023-03-31T15:36:09;11.70;;;2.43;;
20928;SDS011;21895;47.072;15.132;2023-03-31T15:38:37;4.05;;;2.50;;
20928;SDS011;21895;47.072;15.132;2023-03-31T15:41:09;5.70;;;2.37;;
20928;SDS011;21895;47.072;15.132;2023-03-31T15:43:45;3.50;;;2.60;;
20928;SDS011;21895;47.072;15.132;2023-03-31T15:46:47;5.80;;;2.50;;
20928;SDS011;21895;47.072;15.132;2023-03-31T15:49:23;5.00;;;2.85;;
20928;SDS011;21895;47.072;15.132;2023-03-31T15:51:51;5.70;;;2.20;;
20928;SDS011;21895;47.072;15.132;2023-03-31T15:54:33;4.15;;;2.65;;
20928;SDS011;21895;47.072;15.132;2023-03-31T15:57:06;5.60;;;2.60;;
20928;SDS011;21895;47.072;15.132;2023-03-31T15:59:47;4.60;;;2.70;;
20928;SDS011;21895;47.072;15.132;2023-03-31T16:02:23;5.07;;;2.70;;
20928;SDS011;21895;47.072;15.132;2023-03-31T16:05:04;3.10;;;2.37;;
20928;SDS011;21895;47.072;15.132;2023-03-31T16:07:49;9.53;;;2.83;;
20928;SDS011;21895;47.072;15.132;2023-03-31T16:10:17;4.43;;;2.67;;
20928;SDS011;21895;47.072;15.132;2023-03-31T16:12:52;2.83;;;2.23;;
20928;SDS011;21895;47.072;15.132;2023-03-31T16:15:33;11.63;;;2.53;;
20928;SDS011;21895;47.072;15.132;2023-03-31T16:18:06;3.87;;;2.60;;
20928;SDS011;21895;47.072;15.132;2023-03-31T16:20:42;10.03;;;2.30;;
20928;SDS011;21895;47.072;15.132;2023-03-31T16:23:20;5.37;;;2.40;;
20928;SDS011;21895;47.072;15.132;2023-03-31T16:25:51;5.03;;;2.67;;
20928;SDS011;21895;47.072;15.132;2023-03-31T16:28:19;7.03;;;2.30;;
20928;SDS011;21895;47.072;15.132;2023-03-31T16:31:00;5.13;;;2.53;;
20928;SDS011;21895;47.072;15.132;2023-03-31T16:33:29;4.47;;;2.27;;
20928;SDS011;21895;47.072;15.132;2023-03-31T16:36:18;3.83;;;2.33;;
20928;SDS011;21895;47.072;15.132;2023-03-31T16:38:44;5.83;;;2.60;;
20928;SDS011;21895;47.072;15.132;2023-03-31T16:41:11;5.90;;;2.37;;
20928;SDS011;21895;47.072;15.132;2023-03-31T16:43:40;5.57;;;2.43;;
20928;SDS011;21895;47.072;15.132;2023-03-31T16:46:10;4.37;;;2.40;;
20928;SDS011;21895;47.072;15.132;2023-03-31T16:48:36;6.20;;;2.22;;
20928;SDS011;21895;47.072;15.132;2023-03-31T16:51:03;2.80;;;1.73;;
20928;SDS011;21895;47.072;15.132;2023-03-31T16:53:31;4.70;;;2.47;;
20928;SDS011;21895;47.072;15.132;2023-03-31T16:56:00;1.77;;;1.30;;
20928;SDS011;21895;47.072;15.132;2023-03-31T16:58:28;6.70;;;1.00;;
20928;SDS011;21895;47.072;15.132;2023-03-31T17:00:55;4.23;;;0.80;;
20928;SDS011;21895;47.072;15.132;2023-03-31T17:03:22;1.87;;;0.90;;
20928;SDS011;21895;47.072;15.132;2023-03-31T17:05:51;0.70;;;0.70;;
20928;SDS011;21895;47.072;15.132;2023-03-31T17:08:24;1.03;;;0.80;;
20928;SDS011;21895;47.072;15.132;2023-03-31T17:10:53;7.13;;;1.50;;
20928;SDS011;21895;47.072;15.132;2023-03-31T17:13:25;2.17;;;1.40;;
20928;SDS011;21895;47.072;15.132;2023-03-31T17:15:51;1.63;;;1.30;;
20928;SDS011;21895;47.072;15.132;2023-03-31T17:18:33;1.80;;;1.33;;
20928;SDS011;21895;47.072;15.132;2023-03-31T17:21:04;3.10;;;2.00;;
20928;SDS011;21895;47.072;15.132;2023-03-31T17:23:34;4.17;;;1.80;;
20928;SDS011;21895;47.072;15.132;2023-03-31T17:26:04;2.30;;;1.47;;
20928;SDS011;21895;47.072;15.132;2023-03-31T17:28:33;1.33;;;1.00;;
20928;SDS011;21895;47.072;15.132;2023-03-31T17:31:01;2.60;;;1.37;;
20928;SDS011;21895;47.072;15.132;2023-03-31T17:33:35;2.07;;;1.20;;
20928;SDS011;21895;47.072;15.132;2023-03-31T17:36:02;1.00;;;0.90;;
20928;SDS011;21895;47.072;15.132;2023-03-31T17:38:29;1.23;;;0.87;;
20928;SDS011;21895;47.072;15.132;2023-03-31T17:41:00;0.80;;;0.63;;
20928;SDS011;21895;47.072;15.132;2023-03-31T17:43:29;1.70;;;0.83;;
20928;SDS011;21895;47.072;15.132;2023-03-31T17:46:00;0.80;;;0.80;;
20928;SDS011;21895;47.072;15.132;2023-03-31T17:48:35;1.37;;;0.67;;
20928;SDS011;21895;47.072;15.132;2023-03-31T17:51:04;1.00;;;0.60;;
20928;SDS011;21895;47.072;15.132;2023-03-31T17:53:38;0.70;;;0.60;;
20928;SDS011;21895;47.072;15.132;2023-03-31T17:56:06;0.87;;;0.70;;
20928;SDS011;21895;47.072;15.132;2023-03-31T17:58:32;1.20;;;0.80;;